Rechercher aéroport 
image banner adimage banner adimage banner ad
image banner ad

25CL - Van Dyke Strip

Situé à Pleasant Grove, United States

ICAO - 25CL, IATA -

Données fournies par Airmate  

Information générale

Coordonnées: N38°51'60" W121°29'4"
Élévation : 48 feet MSL.
Variation magnétique : 16° East
Voir autres Aéroports à California

Données opérationnelles

Special qualification required
Heure actuelle UTC:
Heure actuelle locale:
METAR: KLHM 262355Z AUTO 18014KT 10SM CLR 32/03 A2982 RMK AO1
Voir NOTAMs / SUP AIP / TFR affectant cet aéroport [VIEW]
Fréquences de communication: [VIEW]

Pistes:

Identifiant RWYQFULongueur (ft)Largeur (ft)SurfaceLDA (ft)
N290050OTHER
S290050OTHER

Coordonnées de l'aéroport

Adresse: Pleasant Grove United States

Vue satellite de 25CL